sensor_id;sensor_type;location;lat;lon;timestamp;P1;durP1;ratioP1;P2;durP2;ratioP2
28587;SDS011;15787;49.662;10.162;2023-04-24T00:01:11;1.95;;;0.65;;
28587;SDS011;15787;49.662;10.162;2023-04-24T00:03:44;2.60;;;0.68;;
28587;SDS011;15787;49.662;10.162;2023-04-24T00:06:19;1.42;;;0.70;;
28587;SDS011;15787;49.662;10.162;2023-04-24T00:08:51;1.88;;;0.93;;
28587;SDS011;15787;49.662;10.162;2023-04-24T00:11:25;1.88;;;0.60;;
28587;SDS011;15787;49.662;10.162;2023-04-24T00:13:58;1.77;;;0.60;;
28587;SDS011;15787;49.662;10.162;2023-04-24T00:16:30;2.25;;;0.60;;
28587;SDS011;15787;49.662;10.162;2023-04-24T00:19:03;2.05;;;0.60;;
28587;SDS011;15787;49.662;10.162;2023-04-24T00:21:38;2.08;;;0.88;;
28587;SDS011;15787;49.662;10.162;2023-04-24T00:24:12;1.15;;;0.80;;
28587;SDS011;15787;49.662;10.162;2023-04-24T00:26:44;1.15;;;0.70;;
28587;SDS011;15787;49.662;10.162;2023-04-24T00:29:17;2.03;;;1.05;;
28587;SDS011;15787;49.662;10.162;2023-04-24T00:31:50;1.73;;;0.90;;
28587;SDS011;15787;49.662;10.162;2023-04-24T00:34:23;1.95;;;0.60;;
28587;SDS011;15787;49.662;10.162;2023-04-24T00:36:57;2.97;;;0.90;;
28587;SDS011;15787;49.662;10.162;2023-04-24T00:39:30;1.45;;;0.70;;
28587;SDS011;15787;49.662;10.162;2023-04-24T00:42:03;2.42;;;0.90;;
28587;SDS011;15787;49.662;10.162;2023-04-24T00:44:37;2.33;;;1.00;;
28587;SDS011;15787;49.662;10.162;2023-04-24T00:47:11;1.38;;;0.82;;
28587;SDS011;15787;49.662;10.162;2023-04-24T00:49:46;1.42;;;0.85;;
28587;SDS011;15787;49.662;10.162;2023-04-24T00:52:20;2.53;;;0.88;;
28587;SDS011;15787;49.662;10.162;2023-04-24T00:54:55;2.03;;;0.80;;
28587;SDS011;15787;49.662;10.162;2023-04-24T00:57:28;1.55;;;0.68;;
28587;SDS011;15787;49.662;10.162;2023-04-24T01:00:01;2.45;;;1.13;;
28587;SDS011;15787;49.662;10.162;2023-04-24T01:02:36;4.53;;;0.90;;
28587;SDS011;15787;49.662;10.162;2023-04-24T01:05:12;2.00;;;0.90;;
28587;SDS011;15787;49.662;10.162;2023-04-24T01:07:48;3.28;;;0.75;;
28587;SDS011;15787;49.662;10.162;2023-04-24T01:10:21;1.92;;;0.90;;
28587;SDS011;15787;49.662;10.162;2023-04-24T01:12:56;3.42;;;0.90;;
28587;SDS011;15787;49.662;10.162;2023-04-24T01:15:30;1.65;;;0.73;;
28587;SDS011;15787;49.662;10.162;2023-04-24T01:18:03;1.30;;;0.88;;
28587;SDS011;15787;49.662;10.162;2023-04-24T01:20:37;1.80;;;0.80;;
28587;SDS011;15787;49.662;10.162;2023-04-24T01:23:13;3.58;;;0.77;;
28587;SDS011;15787;49.662;10.162;2023-04-24T01:25:48;1.55;;;1.15;;
28587;SDS011;15787;49.662;10.162;2023-04-24T01:28:22;3.70;;;1.10;;
28587;SDS011;15787;49.662;10.162;2023-04-24T01:30:55;1.92;;;0.50;;
28587;SDS011;15787;49.662;10.162;2023-04-24T01:33:28;1.33;;;0.70;;
28587;SDS011;15787;49.662;10.162;2023-04-24T01:36:01;5.18;;;1.85;;
28587;SDS011;15787;49.662;10.162;2023-04-24T01:38:35;1.33;;;0.60;;
28587;SDS011;15787;49.662;10.162;2023-04-24T01:41:08;1.02;;;0.63;;
28587;SDS011;15787;49.662;10.162;2023-04-24T01:43:41;2.72;;;0.80;;
28587;SDS011;15787;49.662;10.162;2023-04-24T01:46:14;1.88;;;0.75;;
28587;SDS011;15787;49.662;10.162;2023-04-24T01:48:47;0.82;;;0.52;;
28587;SDS011;15787;49.662;10.162;2023-04-24T01:51:23;1.80;;;0.82;;
28587;SDS011;15787;49.662;10.162;2023-04-24T01:53:59;3.08;;;0.77;;
28587;SDS011;15787;49.662;10.162;2023-04-24T01:56:33;2.33;;;0.63;;
28587;SDS011;15787;49.662;10.162;2023-04-24T01:59:07;0.70;;;0.45;;
28587;SDS011;15787;49.662;10.162;2023-04-24T02:01:41;2.05;;;0.68;;
28587;SDS011;15787;49.662;10.162;2023-04-24T02:04:14;1.88;;;0.50;;
28587;SDS011;15787;49.662;10.162;2023-04-24T02:06:47;1.10;;;0.55;;
28587;SDS011;15787;49.662;10.162;2023-04-24T02:09:22;1.63;;;0.60;;
28587;SDS011;15787;49.662;10.162;2023-04-24T02:11:55;1.30;;;0.60;;
28587;SDS011;15787;49.662;10.162;2023-04-24T02:14:28;0.60;;;0.40;;
28587;SDS011;15787;49.662;10.162;2023-04-24T02:17:01;2.83;;;0.63;;
28587;SDS011;15787;49.662;10.162;2023-04-24T02:19:34;2.10;;;0.57;;
28587;SDS011;15787;49.662;10.162;2023-04-24T02:22:07;2.28;;;0.52;;
28587;SDS011;15787;49.662;10.162;2023-04-24T02:24:41;1.65;;;0.73;;
28587;SDS011;15787;49.662;10.162;2023-04-24T02:27:14;2.40;;;0.75;;
28587;SDS011;15787;49.662;10.162;2023-04-24T02:29:47;1.10;;;0.50;;
28587;SDS011;15787;49.662;10.162;2023-04-24T02:32:20;1.88;;;0.70;;
28587;SDS011;15787;49.662;10.162;2023-04-24T02:34:52;0.50;;;0.40;;
28587;SDS011;15787;49.662;10.162;2023-04-24T02:37:25;1.50;;;0.75;;
28587;SDS011;15787;49.662;10.162;2023-04-24T02:40:00;5.05;;;0.75;;
28587;SDS011;15787;49.662;10.162;2023-04-24T02:42:32;2.40;;;0.65;;
28587;SDS011;15787;49.662;10.162;2023-04-24T02:45:06;2.25;;;0.60;;
28587;SDS011;15787;49.662;10.162;2023-04-24T02:47:39;6.70;;;2.00;;
28587;SDS011;15787;49.662;10.162;2023-04-24T02:50:12;3.28;;;1.00;;
28587;SDS011;15787;49.662;10.162;2023-04-24T02:52:45;0.95;;;0.40;;
28587;SDS011;15787;49.662;10.162;2023-04-24T02:55:20;2.17;;;0.60;;
28587;SDS011;15787;49.662;10.162;2023-04-24T02:57:52;2.47;;;0.60;;
28587;SDS011;15787;49.662;10.162;2023-04-24T03:00:25;1.23;;;0.52;;
28587;SDS011;15787;49.662;10.162;2023-04-24T03:02:58;1.65;;;0.55;;
28587;SDS011;15787;49.662;10.162;2023-04-24T03:05:32;3.15;;;0.70;;
28587;SDS011;15787;49.662;10.162;2023-04-24T03:08:04;3.75;;;0.60;;
28587;SDS011;15787;49.662;10.162;2023-04-24T03:10:39;1.40;;;0.60;;
28587;SDS011;15787;49.662;10.162;2023-04-24T03:13:12;2.70;;;0.60;;
28587;SDS011;15787;49.662;10.162;2023-04-24T03:15:44;1.50;;;0.50;;
28587;SDS011;15787;49.662;10.162;2023-04-24T03:18:18;1.15;;;0.80;;
28587;SDS011;15787;49.662;10.162;2023-04-24T03:20:54;3.17;;;0.60;;
28587;SDS011;15787;49.662;10.162;2023-04-24T03:23:27;3.20;;;0.50;;
28587;SDS011;15787;49.662;10.162;2023-04-24T03:26:02;1.10;;;0.55;;
28587;SDS011;15787;49.662;10.162;2023-04-24T03:28:36;2.80;;;0.68;;
28587;SDS011;15787;49.662;10.162;2023-04-24T03:31:09;1.42;;;0.65;;
28587;SDS011;15787;49.662;10.162;2023-04-24T03:33:42;3.10;;;0.68;;
28587;SDS011;15787;49.662;10.162;2023-04-24T03:36:15;4.10;;;0.80;;
28587;SDS011;15787;49.662;10.162;2023-04-24T03:38:49;3.35;;;1.83;;
28587;SDS011;15787;49.662;10.162;2023-04-24T03:41:35;1.52;;;0.50;;
28587;SDS011;15787;49.662;10.162;2023-04-24T03:44:14;2.33;;;0.70;;
28587;SDS011;15787;49.662;10.162;2023-04-24T03:46:47;3.50;;;0.70;;
28587;SDS011;15787;49.662;10.162;2023-04-24T03:49:21;4.43;;;0.77;;
28587;SDS011;15787;49.662;10.162;2023-04-24T03:51:54;4.40;;;0.70;;
28587;SDS011;15787;49.662;10.162;2023-04-24T03:54:29;1.05;;;0.68;;
28587;SDS011;15787;49.662;10.162;2023-04-24T03:57:05;1.90;;;0.70;;
28587;SDS011;15787;49.662;10.162;2023-04-24T03:59:42;2.08;;;0.70;;
28587;SDS011;15787;49.662;10.162;2023-04-24T04:02:20;3.40;;;0.70;;
28587;SDS011;15787;49.662;10.162;2023-04-24T04:04:54;1.83;;;0.60;;
28587;SDS011;15787;49.662;10.162;2023-04-24T04:07:27;2.35;;;0.50;;
28587;SDS011;15787;49.662;10.162;2023-04-24T04:10:01;5.47;;;0.80;;
28587;SDS011;15787;49.662;10.162;2023-04-24T04:12:36;2.88;;;0.90;;
28587;SDS011;15787;49.662;10.162;2023-04-24T04:15:09;2.83;;;0.73;;
28587;SDS011;15787;49.662;10.162;2023-04-24T04:17:42;2.47;;;0.70;;
28587;SDS011;15787;49.662;10.162;2023-04-24T04:20:17;1.10;;;0.60;;
28587;SDS011;15787;49.662;10.162;2023-04-24T04:22:49;3.22;;;0.80;;
28587;SDS011;15787;49.662;10.162;2023-04-24T04:25:37;3.45;;;0.82;;
28587;SDS011;15787;49.662;10.162;2023-04-24T04:28:11;2.55;;;0.82;;
28587;SDS011;15787;49.662;10.162;2023-04-24T04:30:44;1.88;;;0.70;;
28587;SDS011;15787;49.662;10.162;2023-04-24T04:33:19;2.30;;;0.80;;
28587;SDS011;15787;49.662;10.162;2023-04-24T04:35:52;2.33;;;1.17;;
28587;SDS011;15787;49.662;10.162;2023-04-24T04:38:30;1.85;;;0.80;;
28587;SDS011;15787;49.662;10.162;2023-04-24T04:41:11;3.33;;;0.80;;
28587;SDS011;15787;49.662;10.162;2023-04-24T04:43:46;1.25;;;0.80;;
28587;SDS011;15787;49.662;10.162;2023-04-24T04:46:20;4.32;;;0.80;;
28587;SDS011;15787;49.662;10.162;2023-04-24T04:49:03;2.25;;;1.05;;
28587;SDS011;15787;49.662;10.162;2023-04-24T04:51:36;1.63;;;0.93;;
28587;SDS011;15787;49.662;10.162;2023-04-24T04:54:12;1.88;;;0.68;;
28587;SDS011;15787;49.662;10.162;2023-04-24T04:56:46;5.05;;;1.30;;
28587;SDS011;15787;49.662;10.162;2023-04-24T04:59:20;3.88;;;0.80;;
28587;SDS011;15787;49.662;10.162;2023-04-24T05:02:00;1.55;;;0.85;;
28587;SDS011;15787;49.662;10.162;2023-04-24T05:04:34;1.80;;;0.90;;
28587;SDS011;15787;49.662;10.162;2023-04-24T05:07:07;1.52;;;0.60;;
28587;SDS011;15787;49.662;10.162;2023-04-24T05:09:43;1.38;;;0.60;;
28587;SDS011;15787;49.662;10.162;2023-04-24T05:12:17;3.22;;;0.75;;
28587;SDS011;15787;49.662;10.162;2023-04-24T05:14:56;2.15;;;0.70;;
28587;SDS011;15787;49.662;10.162;2023-04-24T05:17:30;1.90;;;0.70;;
28587;SDS011;15787;49.662;10.162;2023-04-24T05:20:04;1.48;;;0.50;;
28587;SDS011;15787;49.662;10.162;2023-04-24T05:22:38;2.08;;;0.70;;
28587;SDS011;15787;49.662;10.162;2023-04-24T05:25:11;1.52;;;0.52;;
28587;SDS011;15787;49.662;10.162;2023-04-24T05:27:51;1.27;;;0.63;;
28587;SDS011;15787;49.662;10.162;2023-04-24T05:30:26;2.22;;;0.68;;
28587;SDS011;15787;49.662;10.162;2023-04-24T05:32:59;1.20;;;0.63;;
28587;SDS011;15787;49.662;10.162;2023-04-24T05:35:34;0.60;;;0.40;;
28587;SDS011;15787;49.662;10.162;2023-04-24T05:38:07;1.67;;;0.55;;
28587;SDS011;15787;49.662;10.162;2023-04-24T05:40:40;4.25;;;0.80;;
28587;SDS011;15787;49.662;10.162;2023-04-24T05:43:13;1.08;;;0.50;;
28587;SDS011;15787;49.662;10.162;2023-04-24T05:45:48;2.22;;;0.80;;
28587;SDS011;15787;49.662;10.162;2023-04-24T05:48:22;1.50;;;0.60;;
28587;SDS011;15787;49.662;10.162;2023-04-24T05:50:55;1.30;;;0.60;;
28587;SDS011;15787;49.662;10.162;2023-04-24T05:53:29;3.72;;;0.70;;
28587;SDS011;15787;49.662;10.162;2023-04-24T05:56:02;0.93;;;0.60;;
28587;SDS011;15787;49.662;10.162;2023-04-24T05:58:36;2.72;;;0.73;;
28587;SDS011;15787;49.662;10.162;2023-04-24T06:01:10;1.10;;;0.60;;
28587;SDS011;15787;49.662;10.162;2023-04-24T06:03:44;1.35;;;0.63;;
28587;SDS011;15787;49.662;10.162;2023-04-24T06:06:17;1.85;;;0.75;;
28587;SDS011;15787;49.662;10.162;2023-04-24T06:08:50;1.58;;;0.68;;
28587;SDS011;15787;49.662;10.162;2023-04-24T06:11:23;1.20;;;0.60;;
28587;SDS011;15787;49.662;10.162;2023-04-24T06:13:56;1.08;;;0.68;;
28587;SDS011;15787;49.662;10.162;2023-04-24T06:17:02;1.60;;;0.80;;
28587;SDS011;15787;49.662;10.162;2023-04-24T06:19:40;2.38;;;1.25;;
28587;SDS011;15787;49.662;10.162;2023-04-24T06:22:13;3.55;;;1.77;;
28587;SDS011;15787;49.662;10.162;2023-04-24T06:24:46;2.65;;;0.95;;
28587;SDS011;15787;49.662;10.162;2023-04-24T06:27:19;1.83;;;0.98;;
28587;SDS011;15787;49.662;10.162;2023-04-24T06:29:52;2.33;;;0.70;;
28587;SDS011;15787;49.662;10.162;2023-04-24T06:32:28;2.47;;;0.80;;
28587;SDS011;15787;49.662;10.162;2023-04-24T06:35:04;3.05;;;1.20;;
28587;SDS011;15787;49.662;10.162;2023-04-24T06:37:38;3.67;;;1.00;;
28587;SDS011;15787;49.662;10.162;2023-04-24T06:40:11;3.35;;;1.45;;
28587;SDS011;15787;49.662;10.162;2023-04-24T06:42:45;2.95;;;1.25;;
28587;SDS011;15787;49.662;10.162;2023-04-24T06:45:18;1.98;;;1.38;;
28587;SDS011;15787;49.662;10.162;2023-04-24T06:47:52;2.47;;;1.30;;
28587;SDS011;15787;49.662;10.162;2023-04-24T06:50:25;3.95;;;1.00;;
28587;SDS011;15787;49.662;10.162;2023-04-24T06:52:58;2.33;;;1.33;;
28587;SDS011;15787;49.662;10.162;2023-04-24T06:55:31;2.70;;;1.60;;
28587;SDS011;15787;49.662;10.162;2023-04-24T06:58:04;3.17;;;1.70;;
28587;SDS011;15787;49.662;10.162;2023-04-24T07:00:37;1.80;;;1.40;;
28587;SDS011;15787;49.662;10.162;2023-04-24T07:03:12;2.95;;;1.20;;
28587;SDS011;15787;49.662;10.162;2023-04-24T07:05:45;2.78;;;1.70;;
28587;SDS011;15787;49.662;10.162;2023-04-24T07:08:19;2.38;;;1.40;;
28587;SDS011;15787;49.662;10.162;2023-04-24T07:10:53;5.40;;;1.98;;
28587;SDS011;15787;49.662;10.162;2023-04-24T07:13:27;2.90;;;1.48;;
28587;SDS011;15787;49.662;10.162;2023-04-24T07:16:00;3.20;;;1.48;;
28587;SDS011;15787;49.662;10.162;2023-04-24T07:18:34;1.88;;;1.20;;
28587;SDS011;15787;49.662;10.162;2023-04-24T07:21:07;2.33;;;1.50;;
28587;SDS011;15787;49.662;10.162;2023-04-24T07:23:40;2.35;;;1.27;;
28587;SDS011;15787;49.662;10.162;2023-04-24T07:26:13;2.95;;;1.67;;
28587;SDS011;15787;49.662;10.162;2023-04-24T07:28:48;2.33;;;1.38;;
28587;SDS011;15787;49.662;10.162;2023-04-24T07:31:20;4.18;;;1.80;;
28587;SDS011;15787;49.662;10.162;2023-04-24T07:33:55;3.55;;;1.83;;
28587;SDS011;15787;49.662;10.162;2023-04-24T07:36:29;5.85;;;2.60;;
28587;SDS011;15787;49.662;10.162;2023-04-24T07:39:03;3.63;;;1.83;;
28587;SDS011;15787;49.662;10.162;2023-04-24T07:41:37;3.60;;;2.35;;
28587;SDS011;15787;49.662;10.162;2023-04-24T07:44:10;3.92;;;1.65;;
28587;SDS011;15787;49.662;10.162;2023-04-24T07:46:42;3.80;;;1.92;;
28587;SDS011;15787;49.662;10.162;2023-04-24T07:49:17;3.53;;;2.15;;
28587;SDS011;15787;49.662;10.162;2023-04-24T07:51:50;4.22;;;1.88;;
28587;SDS011;15787;49.662;10.162;2023-04-24T07:54:23;4.47;;;1.75;;
28587;SDS011;15787;49.662;10.162;2023-04-24T07:56:56;2.85;;;1.98;;
28587;SDS011;15787;49.662;10.162;2023-04-24T07:59:29;4.75;;;2.05;;
28587;SDS011;15787;49.662;10.162;2023-04-24T08:02:01;3.38;;;2.17;;
28587;SDS011;15787;49.662;10.162;2023-04-24T08:04:36;4.05;;;2.20;;
28587;SDS011;15787;49.662;10.162;2023-04-24T08:07:09;3.13;;;1.92;;
28587;SDS011;15787;49.662;10.162;2023-04-24T08:09:44;4.40;;;2.20;;
28587;SDS011;15787;49.662;10.162;2023-04-24T08:12:17;2.88;;;1.85;;
28587;SDS011;15787;49.662;10.162;2023-04-24T08:14:49;4.90;;;2.75;;
28587;SDS011;15787;49.662;10.162;2023-04-24T08:17:23;6.65;;;2.00;;
28587;SDS011;15787;49.662;10.162;2023-04-24T08:19:58;3.00;;;1.88;;
28587;SDS011;15787;49.662;10.162;2023-04-24T08:22:33;2.90;;;1.80;;
28587;SDS011;15787;49.662;10.162;2023-04-24T08:25:06;3.60;;;1.83;;
28587;SDS011;15787;49.662;10.162;2023-04-24T08:27:40;3.47;;;1.80;;
28587;SDS011;15787;49.662;10.162;2023-04-24T08:30:13;2.70;;;1.75;;
28587;SDS011;15787;49.662;10.162;2023-04-24T08:32:46;3.45;;;1.88;;
28587;SDS011;15787;49.662;10.162;2023-04-24T08:35:20;2.65;;;1.83;;
28587;SDS011;15787;49.662;10.162;2023-04-24T08:37:54;4.93;;;2.00;;
28587;SDS011;15787;49.662;10.162;2023-04-24T08:40:27;2.35;;;1.83;;
28587;SDS011;15787;49.662;10.162;2023-04-24T08:43:02;3.28;;;1.88;;
28587;SDS011;15787;49.662;10.162;2023-04-24T08:45:36;5.38;;;1.88;;
28587;SDS011;15787;49.662;10.162;2023-04-24T08:48:09;4.55;;;2.10;;
28587;SDS011;15787;49.662;10.162;2023-04-24T08:50:59;4.22;;;1.67;;
28587;SDS011;15787;49.662;10.162;2023-04-24T08:53:32;4.93;;;1.90;;
28587;SDS011;15787;49.662;10.162;2023-04-24T08:56:05;3.85;;;1.80;;
28587;SDS011;15787;49.662;10.162;2023-04-24T08:58:39;4.95;;;1.80;;
28587;SDS011;15787;49.662;10.162;2023-04-24T09:01:13;3.83;;;2.03;;
28587;SDS011;15787;49.662;10.162;2023-04-24T09:03:46;3.58;;;1.55;;
28587;SDS011;15787;49.662;10.162;2023-04-24T09:06:23;3.90;;;1.60;;
28587;SDS011;15787;49.662;10.162;2023-04-24T09:08:57;2.35;;;1.73;;
28587;SDS011;15787;49.662;10.162;2023-04-24T09:11:32;5.03;;;1.90;;
28587;SDS011;15787;49.662;10.162;2023-04-24T09:14:05;3.00;;;1.80;;
28587;SDS011;15787;49.662;10.162;2023-04-24T09:16:39;2.13;;;1.20;;
28587;SDS011;15787;49.662;10.162;2023-04-24T09:19:12;2.92;;;1.45;;
28587;SDS011;15787;49.662;10.162;2023-04-24T09:21:47;1.92;;;0.98;;
28587;SDS011;15787;49.662;10.162;2023-04-24T09:24:20;2.42;;;0.90;;
28587;SDS011;15787;49.662;10.162;2023-04-24T09:26:56;3.05;;;0.88;;
28587;SDS011;15787;49.662;10.162;2023-04-24T09:29:33;2.17;;;0.70;;
28587;SDS011;15787;49.662;10.162;2023-04-24T09:32:17;1.08;;;0.70;;
28587;SDS011;15787;49.662;10.162;2023-04-24T09:35:05;2.33;;;0.82;;
28587;SDS011;15787;49.662;10.162;2023-04-24T09:37:42;1.63;;;0.70;;
28587;SDS011;15787;49.662;10.162;2023-04-24T09:40:16;1.25;;;0.80;;
28587;SDS011;15787;49.662;10.162;2023-04-24T09:42:53;1.45;;;0.80;;
28587;SDS011;15787;49.662;10.162;2023-04-24T09:45:27;1.48;;;1.00;;
28587;SDS011;15787;49.662;10.162;2023-04-24T09:48:01;1.67;;;1.02;;
28587;SDS011;15787;49.662;10.162;2023-04-24T09:50:34;1.55;;;1.00;;
28587;SDS011;15787;49.662;10.162;2023-04-24T09:53:11;1.88;;;1.02;;
28587;SDS011;15787;49.662;10.162;2023-04-24T09:55:45;2.45;;;0.85;;
28587;SDS011;15787;49.662;10.162;2023-04-24T09:58:24;1.40;;;0.80;;
28587;SDS011;15787;49.662;10.162;2023-04-24T10:00:58;1.80;;;1.15;;
28587;SDS011;15787;49.662;10.162;2023-04-24T10:03:31;1.25;;;0.88;;
28587;SDS011;15787;49.662;10.162;2023-04-24T10:06:05;2.85;;;1.30;;
28587;SDS011;15787;49.662;10.162;2023-04-24T10:08:42;1.83;;;0.93;;
28587;SDS011;15787;49.662;10.162;2023-04-24T10:11:15;1.55;;;1.10;;
28587;SDS011;15787;49.662;10.162;2023-04-24T10:13:49;3.97;;;1.40;;
28587;SDS011;15787;49.662;10.162;2023-04-24T10:16:22;2.10;;;1.30;;
28587;SDS011;15787;49.662;10.162;2023-04-24T10:18:58;1.92;;;1.27;;
28587;SDS011;15787;49.662;10.162;2023-04-24T10:21:32;1.27;;;0.88;;
28587;SDS011;15787;49.662;10.162;2023-04-24T10:24:07;3.08;;;1.33;;
28587;SDS011;15787;49.662;10.162;2023-04-24T10:26:41;2.13;;;1.25;;
28587;SDS011;15787;49.662;10.162;2023-04-24T10:29:16;2.17;;;0.95;;
28587;SDS011;15787;49.662;10.162;2023-04-24T10:31:50;2.38;;;1.33;;
28587;SDS011;15787;49.662;10.162;2023-04-24T10:34:23;2.20;;;1.38;;
28587;SDS011;15787;49.662;10.162;2023-04-24T10:36:56;2.45;;;1.30;;
28587;SDS011;15787;49.662;10.162;2023-04-24T10:39:31;4.50;;;1.48;;
28587;SDS011;15787;49.662;10.162;2023-04-24T10:42:13;2.58;;;1.50;;
28587;SDS011;15787;49.662;10.162;2023-04-24T10:44:47;2.10;;;1.38;;
28587;SDS011;15787;49.662;10.162;2023-04-24T10:47:20;5.13;;;1.10;;
28587;SDS011;15787;49.662;10.162;2023-04-24T10:49:53;1.75;;;1.20;;
28587;SDS011;15787;49.662;10.162;2023-04-24T10:52:37;1.63;;;1.20;;
28587;SDS011;15787;49.662;10.162;2023-04-24T10:55:18;2.58;;;1.60;;
28587;SDS011;15787;49.662;10.162;2023-04-24T10:58:15;2.65;;;1.52;;
28587;SDS011;15787;49.662;10.162;2023-04-24T11:00:55;2.15;;;1.48;;
28587;SDS011;15787;49.662;10.162;2023-04-24T11:03:30;5.07;;;2.10;;
28587;SDS011;15787;49.662;10.162;2023-04-24T11:06:05;4.03;;;1.50;;
28587;SDS011;15787;49.662;10.162;2023-04-24T11:08:40;2.38;;;1.50;;
28587;SDS011;15787;49.662;10.162;2023-04-24T11:11:17;1.90;;;1.40;;
28587;SDS011;15787;49.662;10.162;2023-04-24T11:14:02;4.05;;;1.90;;
28587;SDS011;15787;49.662;10.162;2023-04-24T11:16:44;2.90;;;1.50;;
28587;SDS011;15787;49.662;10.162;2023-04-24T11:19:25;5.18;;;1.52;;
28587;SDS011;15787;49.662;10.162;2023-04-24T11:22:00;2.25;;;1.40;;
28587;SDS011;15787;49.662;10.162;2023-04-24T11:24:38;3.60;;;1.38;;
28587;SDS011;15787;49.662;10.162;2023-04-24T11:27:21;1.95;;;1.40;;
28587;SDS011;15787;49.662;10.162;2023-04-24T11:29:58;3.70;;;1.50;;
28587;SDS011;15787;49.662;10.162;2023-04-24T11:32:34;4.40;;;1.60;;
28587;SDS011;15787;49.662;10.162;2023-04-24T11:35:13;4.00;;;1.67;;
28587;SDS011;15787;49.662;10.162;2023-04-24T11:37:48;4.10;;;1.60;;
28587;SDS011;15787;49.662;10.162;2023-04-24T11:40:25;2.55;;;1.50;;
28587;SDS011;15787;49.662;10.162;2023-04-24T11:42:59;3.42;;;1.58;;
28587;SDS011;15787;49.662;10.162;2023-04-24T11:45:32;3.88;;;1.80;;
28587;SDS011;15787;49.662;10.162;2023-04-24T11:48:06;4.47;;;1.80;;
28587;SDS011;15787;49.662;10.162;2023-04-24T11:50:39;4.05;;;1.67;;
28587;SDS011;15787;49.662;10.162;2023-04-24T11:53:12;2.38;;;1.30;;
28587;SDS011;15787;49.662;10.162;2023-04-24T11:55:46;3.55;;;1.30;;
28587;SDS011;15787;49.662;10.162;2023-04-24T11:58:21;2.30;;;1.10;;
28587;SDS011;15787;49.662;10.162;2023-04-24T12:00:57;3.50;;;1.40;;
28587;SDS011;15787;49.662;10.162;2023-04-24T12:03:32;2.65;;;1.60;;
28587;SDS011;15787;49.662;10.162;2023-04-24T12:06:06;1.50;;;1.00;;
28587;SDS011;15787;49.662;10.162;2023-04-24T12:08:40;1.92;;;1.00;;
28587;SDS011;15787;49.662;10.162;2023-04-24T12:11:14;3.78;;;1.25;;
28587;SDS011;15787;49.662;10.162;2023-04-24T12:13:50;1.50;;;1.00;;
28587;SDS011;15787;49.662;10.162;2023-04-24T12:16:23;2.08;;;1.02;;
28587;SDS011;15787;49.662;10.162;2023-04-24T12:18:58;4.60;;;1.50;;
28587;SDS011;15787;49.662;10.162;2023-04-24T12:21:32;3.72;;;1.10;;
28587;SDS011;15787;49.662;10.162;2023-04-24T12:24:07;2.17;;;1.05;;
28587;SDS011;15787;49.662;10.162;2023-04-24T12:26:42;1.48;;;0.88;;
28587;SDS011;15787;49.662;10.162;2023-04-24T12:29:20;1.70;;;1.20;;
28587;SDS011;15787;49.662;10.162;2023-04-24T12:31:53;2.70;;;1.50;;
28587;SDS011;15787;49.662;10.162;2023-04-24T12:34:26;2.13;;;1.38;;
28587;SDS011;15787;49.662;10.162;2023-04-24T12:37:09;2.47;;;1.25;;
28587;SDS011;15787;49.662;10.162;2023-04-24T12:39:44;2.42;;;0.95;;
28587;SDS011;15787;49.662;10.162;2023-04-24T12:42:31;2.15;;;1.20;;
28587;SDS011;15787;49.662;10.162;2023-04-24T12:45:07;2.28;;;1.10;;
28587;SDS011;15787;49.662;10.162;2023-04-24T12:47:40;2.20;;;1.05;;
28587;SDS011;15787;49.662;10.162;2023-04-24T12:50:14;4.10;;;1.40;;
28587;SDS011;15787;49.662;10.162;2023-04-24T12:52:48;1.73;;;1.10;;
28587;SDS011;15787;49.662;10.162;2023-04-24T12:55:21;3.83;;;1.20;;
28587;SDS011;15787;49.662;10.162;2023-04-24T12:57:54;2.85;;;1.38;;
28587;SDS011;15787;49.662;10.162;2023-04-24T13:00:28;3.72;;;1.40;;
28587;SDS011;15787;49.662;10.162;2023-04-24T13:03:02;1.90;;;1.40;;
28587;SDS011;15787;49.662;10.162;2023-04-24T13:05:35;2.47;;;1.58;;
28587;SDS011;15787;49.662;10.162;2023-04-24T13:08:08;1.85;;;1.27;;
28587;SDS011;15787;49.662;10.162;2023-04-24T13:10:41;2.53;;;1.60;;
28587;SDS011;15787;49.662;10.162;2023-04-24T13:13:14;5.45;;;2.50;;
28587;SDS011;15787;49.662;10.162;2023-04-24T13:15:48;1.45;;;1.10;;
28587;SDS011;15787;49.662;10.162;2023-04-24T13:18:21;4.25;;;1.33;;
28587;SDS011;15787;49.662;10.162;2023-04-24T13:20:54;2.17;;;1.35;;
28587;SDS011;15787;49.662;10.162;2023-04-24T13:23:27;3.42;;;1.60;;
28587;SDS011;15787;49.662;10.162;2023-04-24T13:26:00;2.88;;;1.23;;
28587;SDS011;15787;49.662;10.162;2023-04-24T13:28:33;2.15;;;1.25;;
28587;SDS011;15787;49.662;10.162;2023-04-24T13:31:08;1.50;;;1.08;;
28587;SDS011;15787;49.662;10.162;2023-04-24T13:33:42;5.93;;;1.33;;
28587;SDS011;15787;49.662;10.162;2023-04-24T13:36:15;2.97;;;1.73;;
28587;SDS011;15787;49.662;10.162;2023-04-24T13:38:48;3.05;;;1.20;;
28587;SDS011;15787;49.662;10.162;2023-04-24T13:41:21;2.30;;;1.65;;
28587;SDS011;15787;49.662;10.162;2023-04-24T13:43:54;2.40;;;1.65;;
28587;SDS011;15787;49.662;10.162;2023-04-24T13:46:28;2.83;;;1.58;;
28587;SDS011;15787;49.662;10.162;2023-04-24T13:49:01;3.70;;;1.60;;
28587;SDS011;15787;49.662;10.162;2023-04-24T13:51:35;2.83;;;1.60;;
28587;SDS011;15787;49.662;10.162;2023-04-24T13:54:08;3.50;;;1.60;;
28587;SDS011;15787;49.662;10.162;2023-04-24T13:56:43;2.78;;;1.58;;
28587;SDS011;15787;49.662;10.162;2023-04-24T13:59:16;3.90;;;1.40;;
28587;SDS011;15787;49.662;10.162;2023-04-24T14:01:50;4.70;;;1.73;;
28587;SDS011;15787;49.662;10.162;2023-04-24T14:04:23;2.45;;;1.75;;
28587;SDS011;15787;49.662;10.162;2023-04-24T14:06:57;2.97;;;1.65;;
28587;SDS011;15787;49.662;10.162;2023-04-24T14:09:30;3.42;;;1.80;;
28587;SDS011;15787;49.662;10.162;2023-04-24T14:12:03;5.03;;;2.70;;
28587;SDS011;15787;49.662;10.162;2023-04-24T14:14:36;4.35;;;1.98;;
28587;SDS011;15787;49.662;10.162;2023-04-24T14:17:11;2.20;;;1.55;;
28587;SDS011;15787;49.662;10.162;2023-04-24T14:19:44;3.00;;;2.15;;
28587;SDS011;15787;49.662;10.162;2023-04-24T14:22:17;4.10;;;2.08;;
28587;SDS011;15787;49.662;10.162;2023-04-24T14:24:50;3.05;;;2.20;;
28587;SDS011;15787;49.662;10.162;2023-04-24T14:27:23;3.10;;;1.95;;
28587;SDS011;15787;49.662;10.162;2023-04-24T14:29:56;4.13;;;1.90;;
28587;SDS011;15787;49.662;10.162;2023-04-24T14:32:30;2.95;;;1.77;;
28587;SDS011;15787;49.662;10.162;2023-04-24T14:35:04;4.22;;;2.55;;
28587;SDS011;15787;49.662;10.162;2023-04-24T14:37:38;8.35;;;2.40;;
28587;SDS011;15787;49.662;10.162;2023-04-24T14:40:12;3.83;;;2.20;;
28587;SDS011;15787;49.662;10.162;2023-04-24T14:43:05;3.42;;;2.42;;
28587;SDS011;15787;49.662;10.162;2023-04-24T14:45:38;4.70;;;2.70;;
28587;SDS011;15787;49.662;10.162;2023-04-24T14:48:14;8.38;;;2.47;;
28587;SDS011;15787;49.662;10.162;2023-04-24T14:50:47;5.78;;;2.72;;
28587;SDS011;15787;49.662;10.162;2023-04-24T14:53:20;6.57;;;2.97;;
28587;SDS011;15787;49.662;10.162;2023-04-24T14:55:53;4.50;;;2.47;;
28587;SDS011;15787;49.662;10.162;2023-04-24T14:58:26;4.82;;;2.15;;
28587;SDS011;15787;49.662;10.162;2023-04-24T15:00:59;4.97;;;2.78;;
28587;SDS011;15787;49.662;10.162;2023-04-24T15:03:34;4.50;;;2.60;;
28587;SDS011;15787;49.662;10.162;2023-04-24T15:06:07;5.82;;;2.55;;
28587;SDS011;15787;49.662;10.162;2023-04-24T15:08:40;3.45;;;2.08;;
28587;SDS011;15787;49.662;10.162;2023-04-24T15:11:13;9.65;;;3.28;;
28587;SDS011;15787;49.662;10.162;2023-04-24T15:13:46;4.50;;;2.20;;
28587;SDS011;15787;49.662;10.162;2023-04-24T15:16:19;4.57;;;2.40;;